Time;durP1;ratioP1;P1;durP2;ratioP2;P2;SDS_P1;SDS_P2;PMS_P1;PMS_P2;Temp;Humidity;BMP_temperature;BMP_pressure;BME280_temperature;BME280_humidity;BME280_pressure;Samples;Min_cycle;Max_cycle;Signal;HPM_P1;HPM_P2
2024/04/14 00:01:08;;;;;;;;;16.75;15.75;;;;;17.96;55.33;101581.41;146604;678;47017;-66
2024/04/14 00:04:03;;;;;;;;;16.25;15.00;;;;;17.99;55.92;101586.78;146603;611;46016;-63
2024/04/14 00:07:00;;;;;;;;;18.75;16.25;;;;;17.97;55.94;101584.12;146605;585;46015;-65
2024/04/14 00:09:57;;;;;;;;;16.00;15.25;;;;;17.97;55.88;101588.44;146603;615;47016;-67
2024/04/14 00:12:56;;;;;;;;;13.00;12.50;;;;;18.01;55.69;101595.59;146599;569;47008;-64
2024/04/14 00:16:07;;;;;;;;;14.50;14.50;;;;;18.00;55.85;101588.53;146603;601;46016;-64
2024/04/14 00:19:10;;;;;;;;;13.75;13.00;;;;;17.93;55.50;101589.19;146606;631;47008;-64
2024/04/14 00:22:11;;;;;;;;;17.00;15.00;;;;;17.86;56.17;101588.06;146602;603;46017;-64
2024/04/14 00:25:14;;;;;;;;;16.00;14.75;;;;;17.83;55.40;101589.69;146604;577;47020;-65
2024/04/14 00:28:20;;;;;;;;;17.50;17.00;;;;;17.81;55.39;101586.13;146596;595;47010;-65
2024/04/14 00:31:23;;;;;;;;;15.00;13.75;;;;;17.74;56.34;101590.22;146607;637;46020;-65
2024/04/14 00:34:27;;;;;;;;;14.50;13.00;;;;;17.66;56.26;101594.28;146602;625;46010;-65
2024/04/14 00:37:22;;;;;;;;;15.50;12.75;;;;;17.61;56.74;101586.28;146605;570;46020;-66
2024/04/14 00:40:20;;;;;;;;;16.25;15.25;;;;;17.65;56.51;101587.28;146603;691;47016;-63
2024/04/14 00:43:23;;;;;;;;;13.25;13.25;;;;;17.65;55.90;101593.41;146602;577;46021;-65
2024/04/14 00:46:54;;;;;;;;;;;;;;;;;;;;;
2024/04/14 00:50:19;;;;;;;;;14.00;14.00;;;;;17.72;56.33;101595.41;146604;654;47008;-64
2024/04/14 00:53:34;;;;;;;;;;;;;;;;;;;;;
2024/04/14 00:56:48;;;;;;;;;15.25;15.00;;;;;17.65;55.77;101584.66;146599;645;47020;-66
2024/04/14 01:00:29;;;;;;;;;;;;;;;;;;;;;
2024/04/14 01:03:44;;;;;;;;;13.75;13.75;;;;;17.44;57.92;101584.75;146606;577;46020;-64
2024/04/14 01:06:57;;;;;;;;;18.75;16.50;;;;;17.42;57.74;101579.47;146602;626;46016;-64
2024/04/14 01:10:14;;;;;;;;;19.75;17.75;;;;;17.35;59.53;101582.66;146606;681;46020;-67
2024/04/14 01:13:16;;;;;;;;;20.50;18.00;;;;;17.31;60.36;101596.50;146602;588;46011;-65
2024/04/14 01:16:26;;;;;;;;;;;;;;;;;;;;;
2024/04/14 01:19:29;;;;;;;;;19.25;18.00;;;;;17.38;58.96;101595.00;146601;591;46030;-67
2024/04/14 01:22:24;;;;;;;;;26.75;21.50;;;;;17.46;60.79;101606.69;146607;606;46021;-66
2024/04/14 01:25:31;;;;;;;;;21.50;19.25;;;;;16.14;59.09;101364.22;146602;593;47010;-67
2024/04/14 01:28:43;;;;;;;;;22.25;18.75;;;;;17.47;58.47;101598.88;146604;592;47008;-66
2024/04/14 01:31:38;;;;;;;;;18.75;18.25;;;;;17.48;60.60;101595.44;146599;610;47025;-66
2024/04/14 01:34:30;;;;;;;;;20.25;20.25;;;;;17.50;61.24;101592.84;146607;636;47008;-66
2024/04/14 01:37:59;;;;;;;;;20.25;18.25;;;;;16.40;58.92;101403.56;146602;596;46012;-68
2024/04/14 01:41:19;;;;;;;;;21.25;19.50;;;;;17.49;58.85;101591.97;146608;627;46020;-66
2024/04/14 01:44:14;;;;;;;;;22.25;19.50;;;;;17.46;60.17;101597.09;146604;612;46017;-68
2024/04/14 01:47:22;;;;;;;;;25.00;21.25;;;;;17.46;63.49;101586.59;146601;574;47008;-69
2024/04/14 01:50:36;;;;;;;;;19.25;19.25;;;;;17.39;62.01;101592.47;146605;570;46016;-65
2024/04/14 01:53:31;;;;;;;;;21.25;20.00;;;;;17.39;63.47;101592.47;146609;610;46008;-64
2024/04/14 01:56:39;;;;;;;;;;;;;;;;;;;;;
2024/04/14 01:59:45;;;;;;;;;24.50;20.25;;;;;16.26;61.37;101375.97;146603;613;47010;-65
2024/04/14 02:03:00;;;;;;;;;23.25;22.50;;;;;17.62;62.96;101598.53;146600;609;47012;-65
2024/04/14 02:06:16;;;;;;;;;22.00;21.00;;;;;17.73;61.33;101596.31;146603;581;47021;-64
2024/04/14 02:09:11;;;;;;;;;26.25;25.00;;;;;17.80;63.51;101610.59;146600;590;47010;-66
2024/04/14 02:12:12;;;;;;;;;19.00;18.75;;;;;17.87;62.72;101609.94;146606;564;46020;-67
2024/04/14 02:15:29;;;;;;;;;21.75;20.00;;;;;16.59;60.18;101374.62;146601;592;47012;-68
2024/04/14 02:18:43;;;;;;;;;23.00;20.25;;;;;16.57;61.31;101385.87;146600;750;47008;-67
2024/04/14 02:21:47;;;;;;;;;21.75;21.75;;;;;17.94;61.98;101612.87;146600;565;47010;-67
2024/04/14 02:24:45;;;;;;;;;21.25;20.50;;;;;17.95;62.83;101617.25;146608;634;46020;-66
2024/04/14 02:27:37;;;;;;;;;22.75;20.00;;;;;17.94;62.25;101618.12;146600;593;47011;-66
2024/04/14 02:30:36;;;;;;;;;20.50;17.75;;;;;17.85;63.75;101620.41;146603;590;46020;-66
2024/04/14 02:34:01;;;;;;;;;25.25;21.50;;;;;17.75;61.99;101626.09;146598;694;48910;-65
2024/04/14 02:37:04;;;;;;;;;22.75;19.50;;;;;17.70;62.53;101625.94;146604;592;47008;-67
2024/04/14 02:40:05;;;;;;;;;20.00;20.00;;;;;17.66;62.50;101631.00;146604;594;46016;-65
2024/04/14 02:43:21;;;;;;;;;;;;;;;;;;;;;
2024/04/14 02:46:32;;;;;;;;;22.50;20.25;;;;;17.46;62.38;101631.16;146599;594;47012;-65
2024/04/14 02:49:37;;;;;;;;;24.00;21.75;;;;;17.36;62.52;101631.66;146600;563;46020;-66
2024/04/14 02:52:36;;;;;;;;;20.25;19.50;;;;;17.26;61.37;101634.78;146601;590;46010;-67
2024/04/14 02:55:39;;;;;;;;;18.75;17.75;;;;;17.17;61.19;101623.94;146606;622;47008;-67
2024/04/14 02:58:37;;;;;;;;;21.00;20.00;;;;;17.09;62.14;101640.25;146601;614;47010;-67
2024/04/14 03:01:42;;;;;;;;;17.50;17.50;;;;;17.05;61.36;101642.69;146608;633;46021;-69
2024/04/14 03:04:49;;;;;;;;;20.00;19.25;;;;;17.02;61.68;101630.34;146601;592;47010;-70
2024/04/14 03:07:58;;;;;;;;;22.75;20.00;;;;;16.99;59.93;101635.47;146604;564;47008;-69
2024/04/14 03:11:15;;;;;;;;;;;;;;;;;;;;;
2024/04/14 03:14:19;;;;;;;;;20.50;20.25;;;;;16.92;62.43;101641.31;146605;614;47008;-69
2024/04/14 03:17:26;;;;;;;;;19.50;18.50;;;;;16.80;61.98;101632.97;146603;554;46016;-69
2024/04/14 03:20:27;;;;;;;;;19.50;18.00;;;;;16.74;61.29;101635.31;146601;683;46008;-69
2024/04/14 03:23:30;;;;;;;;;17.00;17.00;;;;;16.76;62.41;101636.25;146602;606;47916;-69
2024/04/14 03:26:31;;;;;;;;;20.50;20.00;;;;;16.77;61.41;101645.94;146604;621;47008;-69
2024/04/14 03:29:32;;;;;;;;;19.50;17.50;;;;;16.71;62.22;101640.41;146601;569;47010;-69
2024/04/14 03:32:43;;;;;;;;;19.50;16.75;;;;;16.61;61.39;101631.28;146629;577;46008;-69
2024/04/14 03:36:16;;;;;;;;;;;;;;;;;;;;;
2024/04/14 03:39:27;;;;;;;;;20.00;18.00;;;;;15.15;61.61;101404.53;146629;599;45021;-66
2024/04/14 03:42:31;;;;;;;;;19.00;17.00;;;;;16.53;61.75;101648.41;146634;666;45016;-69
2024/04/14 03:45:54;;;;;;;;;18.00;17.50;;;;;15.19;60.20;101409.94;146633;564;45008;-69
2024/04/14 03:49:02;;;;;;;;;;;;;;;;;;;;;
2024/04/14 03:52:11;;;;;;;;;21.50;17.00;;;;;16.57;61.75;101659.06;146625;691;46006;-71
2024/04/14 03:55:23;;;;;;;;;19.25;17.25;;;;;16.60;60.59;101656.59;146630;617;45016;-70
2024/04/14 03:58:26;;;;;;;;;18.25;18.00;;;;;16.63;61.26;101664.56;146635;594;45008;-70
2024/04/14 04:01:38;;;;;;;;;;;;;;;;;;;;;
2024/04/14 04:04:30;;;;;;;;;18.00;17.25;;;;;16.59;63.27;101680.97;146629;570;45020;-69
2024/04/14 04:07:30;;;;;;;;;25.50;22.00;;;;;16.67;66.58;101689.16;146629;611;45912;-65
2024/04/14 04:10:30;;;;;;;;;26.25;22.25;;;;;16.79;70.72;101694.00;146632;592;45020;-65
2024/04/14 04:13:40;;;;;;;;;19.00;17.00;;;;;16.96;72.65;101686.88;146625;569;45912;-65
2024/04/14 04:16:46;;;;;;;;;23.75;18.00;;;;;17.17;71.36;101689.47;146634;611;45021;-65
2024/04/14 04:19:42;;;;;;;;;24.25;21.00;;;;;17.41;68.01;101692.13;146630;679;45864;-67
2024/04/14 04:23:05;;;;;;;;;25.50;21.25;;;;;16.55;65.64;101524.59;146625;634;45021;-66
2024/04/14 04:26:03;;;;;;;;;24.50;21.75;;;;;17.70;67.79;101704.63;146631;661;46010;-66
2024/04/14 04:28:56;;;;;;;;;20.00;19.75;;;;;17.77;67.03;101708.41;146629;594;46020;-68
2024/04/14 04:31:57;;;;;;;;;21.75;20.25;;;;;17.88;65.75;101712.34;146611;581;46016;-69
2024/04/14 04:35:09;;;;;;;;;;;;;;;;;;;;;
2024/04/14 04:38:14;;;;;;;;;26.00;20.75;;;;;16.67;63.78;101482.28;146604;581;46031;-67
2024/04/14 04:41:30;;;;;;;;;21.25;19.00;;;;;18.16;68.10;101729.09;146606;570;46020;-67
2024/04/14 04:44:33;;;;;;;;;22.75;20.50;;;;;18.42;65.66;101736.16;146598;671;47013;-66
2024/04/14 04:47:36;;;;;;;;;22.25;22.00;;;;;18.70;65.65;101735.41;146603;565;47008;-65
2024/04/14 04:50:41;;;;;;;;;24.25;21.00;;;;;18.96;64.51;101740.66;146602;623;46024;-67
2024/04/14 04:53:39;;;;;;;;;21.75;20.50;;;;;19.16;63.81;101751.84;146599;599;46020;-66
2024/04/14 04:56:44;;;;;;;;;24.50;22.50;;;;;19.29;64.40;101750.50;146603;650;46016;-65
2024/04/14 04:59:44;;;;;;;;;21.00;20.00;;;;;19.30;64.57;101755.78;146606;601;46008;-66
2024/04/14 05:02:49;;;;;;;;;23.00;21.00;;;;;19.38;63.94;101756.94;146602;605;46016;-67
2024/04/14 05:05:45;;;;;;;;;22.25;20.00;;;;;19.55;64.42;101761.84;146608;655;46020;-68
2024/04/14 05:09:18;;;;;;;;;20.00;18.25;;;;;19.68;63.53;101758.75;146601;615;47010;-69
2024/04/14 05:12:17;;;;;;;;;24.00;20.75;;;;;19.83;62.74;101759.22;146605;603;46008;-65
2024/04/14 05:15:23;;;;;;;;;23.75;21.50;;;;;20.04;62.73;101755.44;146602;564;47010;-67
2024/04/14 05:18:26;;;;;;;;;22.00;20.50;;;;;20.24;62.75;101767.44;146603;573;47008;-66
2024/04/14 05:21:39;;;;;;;;;22.25;20.75;;;;;20.50;61.53;101769.91;146601;598;47010;-68
2024/04/14 05:24:32;;;;;;;;;22.00;20.50;;;;;20.71;61.57;101774.88;146600;585;47020;-68
2024/04/14 05:27:34;;;;;;;;;20.75;20.25;;;;;20.90;59.53;101770.97;146600;577;46010;-68
2024/04/14 05:30:43;;;;;;;;;21.50;20.00;;;;;21.07;60.20;101781.97;146608;603;46021;-70
2024/04/14 05:33:43;;;;;;;;;21.25;19.00;;;;;21.20;59.29;101773.50;146607;581;47010;-69
2024/04/14 05:36:50;;;;;;;;;23.75;21.00;;;;;21.35;58.89;101775.63;146615;646;46020;-66
2024/04/14 05:39:59;;;;;;;;;23.00;19.00;;;;;21.44;57.24;101770.59;146609;623;46010;-67
2024/04/14 05:43:10;;;;;;;;;24.75;22.00;;;;;21.53;56.97;101772.56;146613;612;47008;-68
2024/04/14 05:46:18;;;;;;;;;;;;;;;;;;;;;
2024/04/14 05:49:31;;;;;;;;;;;;;;;;;;;;;
2024/04/14 05:52:40;;;;;;;;;24.50;23.00;;;;;21.95;57.16;101788.44;146607;706;47016;-71
2024/04/14 05:55:32;;;;;;;;;21.75;19.75;;;;;22.11;56.69;101787.00;146607;587;47020;-70
2024/04/14 05:58:46;;;;;;;;;24.25;24.00;;;;;22.27;55.55;101789.13;146608;592;46011;-70
2024/04/14 06:01:51;;;;;;;;;22.00;21.00;;;;;22.43;54.89;101793.00;146614;614;47020;-70
2024/04/14 06:04:50;;;;;;;;;22.00;20.75;;;;;22.55;54.31;101790.59;146607;636;46912;-68
2024/04/14 06:07:53;;;;;;;;;23.00;23.00;;;;;22.60;54.12;101786.28;146612;583;47010;-67
2024/04/14 06:11:08;;;;;;;;;21.00;20.00;;;;;21.52;53.93;101594.84;146607;630;46916;-68
2024/04/14 06:14:05;;;;;;;;;24.75;20.50;;;;;22.71;54.18;101790.84;146612;573;47008;-69
2024/04/14 06:17:09;;;;;;;;;23.25;22.00;;;;;22.83;54.21;101785.78;146608;584;47010;-66
2024/04/14 06:20:07;;;;;;;;;23.25;23.00;;;;;23.00;54.17;101791.44;146611;597;47020;-69
2024/04/14 06:23:38;;;;;;;;;23.75;22.00;;;;;23.24;53.47;101793.56;146605;566;47010;-71
2024/04/14 06:26:57;;;;;;;;;23.25;22.00;;;;;23.42;52.42;101788.56;146609;578;46020;-70
2024/04/14 06:29:53;;;;;;;;;22.50;22.25;;;;;23.58;52.74;101788.81;146607;625;46012;-68
2024/04/14 06:32:55;;;;;;;;;21.25;20.75;;;;;22.57;52.09;101589.72;146602;592;47010;-68
2024/04/14 06:35:52;;;;;;;;;23.75;22.00;;;;;23.82;52.63;101793.59;146600;613;47011;-70
2024/04/14 06:38:54;;;;;;;;;24.50;23.75;;;;;23.88;51.12;101791.91;146604;589;47008;-69
2024/04/14 06:42:05;;;;;;;;;24.00;21.50;;;;;23.89;51.29;101793.69;146602;577;46017;-68
2024/04/14 06:45:12;;;;;;;;;21.00;19.75;;;;;23.91;51.65;101789.31;146607;605;46025;-70
2024/04/14 06:48:13;;;;;;;;;26.50;25.50;;;;;23.95;52.00;101791.12;146603;581;46016;-68
2024/04/14 06:51:22;;;;;;;;;28.25;25.75;;;;;22.90;51.36;101597.28;146606;618;46025;-67
2024/04/14 06:54:38;;;;;;;;;;;;;;;;;;;;;
2024/04/14 06:57:51;;;;;;;;;28.50;24.75;;;;;22.78;51.33;101581.25;146599;608;47021;-67
2024/04/14 07:01:02;;;;;;;;;27.00;25.25;;;;;24.09;51.54;101786.00;146600;602;47010;-68
2024/04/14 07:04:02;;;;;;;;;24.25;23.25;;;;;24.26;50.90;101786.22;146603;567;47008;-68
2024/04/14 07:07:03;;;;;;;;;30.00;26.75;;;;;24.38;50.06;101785.47;146599;617;47010;-68
2024/04/14 07:10:01;;;;;;;;;21.50;19.25;;;;;24.52;50.79;101788.31;146602;571;47008;-69
2024/04/14 07:13:00;;;;;;;;;20.75;16.75;;;;;24.22;49.65;101699.59;146600;571;46010;-70
2024/04/14 07:16:01;;;;;;;;;25.25;23.50;;;;;24.82;49.65;101788.59;146607;591;47020;-70
2024/04/14 07:19:22;;;;;;;;;27.00;26.25;;;;;24.94;49.56;101784.28;146602;600;46017;-71
2024/04/14 07:22:30;;;;;;;;;24.25;22.00;;;;;25.01;48.37;101781.69;146605;579;46008;-70
2024/04/14 07:25:36;;;;;;;;;26.75;26.00;;;;;25.06;48.83;101779.97;146602;571;46012;-70
2024/04/14 07:28:32;;;;;;;;;26.50;24.00;;;;;25.20;48.93;101776.56;146601;572;47008;-70
2024/04/14 07:31:49;;;;;;;;;19.00;18.50;;;;;25.32;47.35;101776.66;146598;592;47016;-70
2024/04/14 07:34:45;;;;;;;;;12.50;12.25;;;;;25.44;46.62;101783.84;146603;616;47008;-70
2024/04/14 07:37:41;;;;;;;;;21.00;18.25;;;;;25.50;46.18;101776.78;146602;603;47016;-70
2024/04/14 07:40:47;;;;;;;;;18.50;18.00;;;;;25.56;46.15;101790.13;146606;574;46020;-70
2024/04/14 07:43:48;;;;;;;;;17.75;15.25;;;;;25.63;45.87;101779.53;146602;642;46016;-69
2024/04/14 07:46:48;;;;;;;;;13.25;11.75;;;;;25.75;44.90;101793.75;146606;653;46020;-71
2024/04/14 07:49:47;;;;;;;;;18.25;17.75;;;;;25.34;44.00;101713.88;146602;579;47012;-71
2024/04/14 07:52:45;;;;;;;;;21.25;20.75;;;;;25.91;44.07;101802.72;146604;593;47008;-70
2024/04/14 07:56:01;;;;;;;;;16.00;16.00;;;;;26.03;43.33;101786.84;146599;601;47915;-71
2024/04/14 07:59:14;;;;;;;;;15.50;15.50;;;;;26.17;43.56;101789.59;146602;736;46020;-70
2024/04/14 08:02:23;;;;;;;;;19.00;18.25;;;;;26.30;43.16;101785.19;146602;606;46016;-71
2024/04/14 08:05:36;;;;;;;;;15.00;13.75;;;;;26.35;40.84;101791.38;146604;580;47008;-71
2024/04/14 08:08:31;;;;;;;;;14.00;11.33;;;;;26.38;39.59;101786.09;146599;569;48010;-70
2024/04/14 08:11:29;;;;;;;;;12.00;12.00;;;;;26.41;40.77;101793.19;146609;639;46021;-71
2024/04/14 08:14:26;;;;;;;;;13.00;12.00;;;;;26.43;40.41;101786.13;146603;687;46025;-71
2024/04/14 08:17:35;;;;;;;;;15.00;12.75;;;;;26.41;41.73;101787.88;146607;688;46021;-71
2024/04/14 08:20:46;;;;;;;;;15.75;13.25;;;;;26.24;38.10;101788.72;146601;661;47010;-72
2024/04/14 08:23:49;;;;;;;;;12.25;12.00;;;;;26.08;40.69;101794.88;146604;694;46047;-71
2024/04/14 08:26:50;;;;;;;;;14.75;13.25;;;;;26.03;41.16;101788.63;146602;660;46017;-70
2024/04/14 08:30:03;;;;;;;;;14.25;13.25;;;;;25.96;39.46;101793.03;146600;664;47008;-73
2024/04/14 08:33:15;;;;;;;;;14.25;14.00;;;;;25.84;42.40;101794.75;146629;573;46911;-71
2024/04/14 08:36:18;;;;;;;;;16.00;14.50;;;;;25.85;42.63;101799.16;146635;638;45020;-71
2024/04/14 08:39:13;;;;;;;;;12.50;11.50;;;;;25.95;40.46;101795.66;146622;679;47016;-72
2024/04/14 08:42:29;;;;;;;;;14.75;14.00;;;;;26.08;40.90;101784.22;146633;623;45021;-71
2024/04/14 08:45:25;;;;;;;;;15.00;13.50;;;;;26.05;41.95;101794.84;146626;614;46016;-71
2024/04/14 08:48:28;;;;;;;;;14.00;14.00;;;;;25.96;41.00;101784.19;146636;601;45008;-72
2024/04/14 08:51:24;;;;;;;;;15.25;14.25;;;;;25.57;40.07;101713.97;146626;586;46010;-72
2024/04/14 08:54:33;;;;;;;;;;;;;;;;;;;;;
2024/04/14 08:57:38;;;;;;;;;14.67;13.00;;;;;26.30;39.99;101785.19;146624;625;46010;-71
2024/04/14 09:00:48;;;;;;;;;13.33;13.00;;;;;26.34;41.23;101778.09;146627;587;46008;-74
2024/04/14 09:03:51;;;;;;;;;15.00;14.50;;;;;26.35;42.31;101787.84;146630;570;46912;-74
2024/04/14 09:06:54;;;;;;;;;13.67;12.67;;;;;26.43;41.37;101784.34;146634;578;45020;-73
2024/04/14 09:09:52;;;;;;;;;12.33;12.33;;;;;26.40;39.38;101789.66;146630;604;45868;-72
2024/04/14 09:13:00;;;;;;;;;14.33;11.67;;;;;26.37;40.67;101779.00;146632;711;45913;-73
2024/04/14 09:16:01;;;;;;;;;18.50;14.50;;;;;26.39;40.32;101784.34;146631;608;45018;-72
2024/04/14 09:19:03;;;;;;;;;16.00;13.00;;;;;26.39;39.58;101779.03;146629;571;46008;-71
2024/04/14 09:22:10;;;;;;;;;13.00;12.00;;;;;26.41;38.86;101779.88;146630;603;46010;-70
2024/04/14 09:25:22;;;;;;;;;17.00;14.50;;;;;26.43;40.64;101779.03;146631;570;45020;-68
2024/04/14 09:28:20;;;;;;;;;17.25;15.00;;;;;26.43;39.32;101781.69;146627;685;46010;-74
2024/04/14 09:31:21;;;;;;;;;15.25;14.25;;;;;26.38;39.17;101782.53;146614;671;46011;-78
2024/04/14 09:34:19;;;;;;;;;15.67;15.33;;;;;26.31;39.02;101773.66;146603;572;46016;-75
2024/04/14 09:37:41;;;;;;;;;10.67;9.00;;;;;25.37;40.13;101614.75;146607;626;47020;-80
2024/04/14 09:40:56;;;;;;;;;14.67;13.33;;;;;26.37;38.14;101763.03;146609;564;47010;-76
2024/04/14 09:44:15;;;;;;;;;13.00;12.50;;;;;26.35;39.60;101762.16;146605;657;47008;-74
2024/04/14 09:47:24;;;;;;;;;13.00;13.00;;;;;26.42;41.16;101755.97;146603;566;46017;-75
2024/04/14 09:50:31;;;;;;;;;12.67;12.67;;;;;26.59;39.83;101752.50;146605;571;47008;-77
2024/04/14 09:53:44;;;;;;;;;13.00;12.00;;;;;26.65;39.90;101749.84;146603;623;47017;-73
2024/04/14 09:56:52;;;;;;;;;17.67;15.00;;;;;26.59;40.58;101741.84;146607;576;46008;-77
2024/04/14 10:00:03;;;;;;;;;16.25;16.00;;;;;26.11;41.87;101650.47;146603;569;46016;-78
2024/04/14 10:03:18;;;;;;;;;;;;;;;;;;;;;
2024/04/14 10:06:20;;;;;;;;;18.25;17.75;;;;;25.93;41.06;101627.38;146601;644;47010;-78
2024/04/14 10:09:19;;;;;;;;;16.00;15.50;;;;;26.54;40.88;101725.88;146600;600;48008;-77
2024/04/14 10:12:41;;;;;;;;;;;;;;;;;;;;;
2024/04/14 10:16:03;;;;;;;;;14.67;14.00;;;;;26.82;41.64;101728.53;146608;567;47008;-76
2024/04/14 10:19:09;;;;;;;;;15.00;14.00;;;;;27.03;40.55;101719.69;146602;593;46016;-78
2024/04/14 10:22:24;;;;;;;;;16.00;14.33;;;;;27.21;40.77;101717.03;146608;585;47020;-81
2024/04/14 10:25:31;;;;;;;;;18.00;16.50;;;;;27.42;40.78;101715.22;146602;616;47012;-76
2024/04/14 10:28:40;;;;;;;;;13.33;13.33;;;;;26.97;40.30;101618.53;146607;570;47008;-76
2024/04/14 10:31:50;;;;;;;;;17.00;17.00;;;;;26.49;40.68;101515.78;146603;622;46017;-77
2024/04/14 10:35:05;;;;;;;;;17.25;15.50;;;;;27.54;40.55;101702.75;146599;563;47008;-77
2024/04/14 10:38:43;;;;;;;;;;;;;;;;;;;;;
2024/04/14 10:41:54;;;;;;;;;15.00;14.67;;;;;26.48;39.55;101514.00;146606;574;47010;-77
2024/04/14 10:44:57;;;;;;;;;15.67;13.33;;;;;27.56;39.48;101698.28;146604;610;46016;-74
2024/04/14 10:47:59;;;;;;;;;16.00;15.67;;;;;27.57;37.48;101694.75;146607;590;46027;-76
2024/04/14 10:51:08;;;;;;;;;17.00;15.00;;;;;26.13;40.99;101446.66;146599;587;47010;-73
2024/04/14 10:54:13;;;;;;;;;12.33;12.33;;;;;27.56;39.87;101689.41;146608;652;46021;-75
2024/04/14 10:57:39;;;;;;;;;15.33;14.00;;;;;27.47;39.37;101684.09;146600;640;47010;-75
2024/04/14 11:00:41;;;;;;;;;17.67;15.00;;;;;27.38;40.46;101679.69;146609;615;46021;-76
2024/04/14 11:04:04;;;;;;;;;14.67;13.67;;;;;27.35;39.55;101674.37;146599;584;47010;-79
2024/04/14 11:07:17;;;;;;;;;19.33;16.67;;;;;27.45;41.27;101677.91;146599;577;47008;-79
2024/04/14 11:10:40;;;;;;;;;16.67;15.00;;;;;26.63;40.06;101510.41;146603;638;47010;-80
2024/04/14 11:13:58;;;;;;;;;18.25;16.00;;;;;27.59;40.66;101674.28;146608;605;46020;-76
2024/04/14 11:16:53;;;;;;;;;17.75;16.75;;;;;27.68;40.08;101672.50;146601;645;46024;-75
2024/04/14 11:20:06;;;;;;;;;14.00;14.00;;;;;26.97;39.10;101533.38;146604;678;46008;-84
2024/04/14 11:23:20;;;;;;;;;16.25;14.25;;;;;27.90;39.04;101665.31;146602;667;46017;-79
2024/04/14 11:26:29;;;;;;;;;16.00;16.00;;;;;28.00;39.10;101664.34;146603;580;46020;-78
2024/04/14 11:29:56;;;;;;;;;14.50;12.75;;;;;27.04;40.69;101474.81;146602;654;47010;-80
2024/04/14 11:32:58;;;;;;;;;16.50;15.75;;;;;28.11;39.35;101646.50;146630;696;45008;-77
2024/04/14 11:36:15;;;;;;;;;16.00;14.25;;;;;28.15;38.83;101647.37;146628;638;46010;-81
2024/04/14 11:39:11;;;;;;;;;17.75;17.75;;;;;27.99;38.92;101652.81;146627;590;45038;-83
2024/04/14 11:42:14;;;;;;;;;;;;;;;;;;;;;
2024/04/14 11:45:15;;;;;;;;;19.00;18.00;;;;;27.46;39.45;101637.06;146633;611;46021;-77
2024/04/14 11:48:48;;;;;;;;;;;;;;;;;;;;;
2024/04/14 11:51:47;;;;;;;;;15.50;13.75;;;;;27.34;39.58;101640.66;146633;578;45021;-76
2024/04/14 11:54:41;;;;;;;;;16.00;15.75;;;;;27.38;39.57;101631.75;146627;600;46010;-79
2024/04/14 11:57:41;;;;;;;;;16.75;16.25;;;;;27.37;39.77;101633.53;146627;628;47008;-77
2024/04/14 12:00:39;;;;;;;;;17.25;16.75;;;;;27.37;40.01;101622.00;146628;653;46027;-77
2024/04/14 12:04:03;;;;;;;;;18.00;16.25;;;;;27.43;40.58;101621.97;146629;649;45020;-76
2024/04/14 12:07:18;;;;;;;;;;;;;;;;;;;;;
2024/04/14 12:10:37;;;;;;;;;16.25;14.50;;;;;27.72;38.51;101604.94;146625;566;45020;-77
2024/04/14 12:13:45;;;;;;;;;14.25;14.25;;;;;26.71;39.57;101407.53;146621;655;48911;-74
2024/04/14 12:16:59;;;;;;;;;14.25;12.25;;;;;26.67;37.63;101394.25;146634;618;45008;-78
2024/04/14 12:20:06;;;;;;;;;;;;;;;;;;;;;
2024/04/14 12:23:04;;;;;;;;;16.00;15.50;;;;;27.39;36.64;101582.94;146627;723;45021;-76
2024/04/14 12:26:19;;;;;;;;;15.75;13.50;;;;;26.11;36.32;101384.66;146630;603;45016;-75
2024/04/14 12:29:18;;;;;;;;;15.50;15.00;;;;;27.06;36.66;101587.47;146634;578;46008;-75
2024/04/14 12:32:22;;;;;;;;;17.75;15.50;;;;;27.04;39.25;101575.94;146607;669;47010;-76
2024/04/14 12:35:24;;;;;;;;;14.00;13.25;;;;;27.12;38.33;101560.81;146605;608;47020;-83
2024/04/14 12:38:25;;;;;;;;;15.75;15.75;;;;;27.19;37.98;101561.69;146603;723;46912;-75
2024/04/14 12:41:29;;;;;;;;;15.00;15.00;;;;;27.29;39.24;101558.13;146603;702;46020;-76
2024/04/14 12:44:37;;;;;;;;;16.75;15.75;;;;;27.33;39.75;101557.22;146602;564;47011;-77
2024/04/14 12:47:37;;;;;;;;;18.25;15.75;;;;;27.32;39.30;101557.22;146604;605;47008;-76
2024/04/14 12:50:50;;;;;;;;;15.00;14.75;;;;;27.30;39.24;101540.38;146599;677;47010;-74
2024/04/14 12:53:43;;;;;;;;;16.25;15.75;;;;;27.24;37.81;101538.63;146605;620;47008;-79
2024/04/14 12:56:39;;;;;;;;;15.25;15.25;;;;;27.18;39.04;101541.31;146597;590;47010;-75
2024/04/14 12:59:42;;;;;;;;;17.50;15.75;;;;;27.10;40.24;101530.69;146606;664;46008;-76
2024/04/14 13:02:41;;;;;;;;;16.50;15.75;;;;;27.04;39.00;101527.12;146602;551;46911;-74
2024/04/14 13:05:38;;;;;;;;;19.00;18.00;;;;;27.01;40.73;101529.78;146602;580;47020;-79
2024/04/14 13:08:37;;;;;;;;;18.25;17.00;;;;;26.99;39.12;101528.94;146602;600;46016;-78
2024/04/14 13:11:48;;;;;;;;;17.25;17.00;;;;;26.95;39.53;101526.28;146599;636;47008;-77
2024/04/14 13:15:00;;;;;;;;;;;;;;;;;;;;;
2024/04/14 13:17:56;;;;;;;;;14.50;14.50;;;;;26.98;40.55;101517.41;146604;593;47008;-74
2024/04/14 13:21:03;;;;;;;;;18.75;17.00;;;;;27.05;41.20;101521.81;146604;610;46030;-78
2024/04/14 13:24:06;;;;;;;;;13.50;13.50;;;;;27.04;40.02;101513.81;146609;648;46008;-76
2024/04/14 13:27:15;;;;;;;;;18.00;17.00;;;;;25.96;39.93;101324.47;146603;617;47012;-78
2024/04/14 13:30:31;;;;;;;;;;;;;;;;;;;;;
2024/04/14 13:33:42;;;;;;;;;16.25;15.50;;;;;27.00;40.63;101506.75;146630;590;46010;-74
2024/04/14 13:36:37;;;;;;;;;15.50;15.25;;;;;27.00;39.99;101502.31;146633;645;46029;-78
2024/04/14 13:39:52;;;;;;;;;16.25;16.00;;;;;27.03;40.99;101496.09;146627;577;46016;-78
2024/04/14 13:42:51;;;;;;;;;15.00;14.00;;;;;26.59;39.56;101415.56;146628;632;45008;-77
2024/04/14 13:46:00;;;;;;;;;13.25;12.50;;;;;27.06;37.60;101502.28;146629;656;46010;-73
2024/04/14 13:48:59;;;;;;;;;15.50;15.00;;;;;26.93;38.92;101503.22;146630;666;45020;-78
2024/04/14 13:52:06;;;;;;;;;17.50;15.75;;;;;26.75;37.33;101506.84;146630;576;45912;-70
2024/04/14 13:55:02;;;;;;;;;15.50;14.25;;;;;26.62;39.19;101503.31;146632;697;46020;-70
2024/04/14 13:58:04;;;;;;;;;15.75;15.00;;;;;26.51;38.71;101494.47;146627;604;46016;-71
2024/04/14 14:01:17;;;;;;;;;;;;;;;;;;;;;
2024/04/14 14:04:37;;;;;;;;;;;;;;;;;;;;;
2024/04/14 14:07:56;;;;;;;;;;;;;;;;;;;;;
2024/04/14 14:10:55;;;;;;;;;15.50;14.75;;;;;26.43;38.63;101496.25;146629;576;45911;-67
2024/04/14 14:14:16;;;;;;;;;13.00;13.00;;;;;26.40;39.52;101489.16;146630;606;45020;-72
2024/04/14 14:17:13;;;;;;;;;18.25;16.25;;;;;26.45;41.11;101489.16;146630;565;46010;-72
2024/04/14 14:20:38;;;;;;;;;14.50;13.75;;;;;26.51;40.87;101489.16;146631;571;45027;-73
2024/04/14 14:23:34;;;;;;;;;15.00;14.25;;;;;26.58;38.60;101484.72;146632;635;45913;-74
2024/04/14 14:26:53;;;;;;;;;12.50;12.00;;;;;26.56;40.32;101478.53;146634;571;45008;-75
2024/04/14 14:29:55;;;;;;;;;17.00;16.00;;;;;26.57;41.41;101481.16;146627;573;45912;-75
2024/04/14 14:32:58;;;;;;;;;16.50;16.50;;;;;26.58;40.38;101477.63;146613;563;46008;-72
2024/04/14 14:39:43;;;;;;;;;16.00;16.00;;;;;26.46;38.92;101475.84;146611;613;47008;-77
2024/04/14 14:42:45;;;;;;;;;13.00;13.00;;;;;26.32;40.32;101474.97;146607;614;47010;-76
2024/04/14 14:45:44;;;;;;;;;16.25;15.25;;;;;26.25;41.07;101473.22;146611;579;46008;-77
2024/04/14 14:48:39;;;;;;;;;14.00;14.00;;;;;26.24;41.29;101460.84;146606;599;47013;-77
2024/04/14 14:51:45;;;;;;;;;17.50;16.50;;;;;26.30;41.99;101468.81;146615;648;46021;-75
2024/04/14 14:55:08;;;;;;;;;;;;;;;;;;;;;
2024/04/14 14:58:03;;;;;;;;;16.25;16.25;;;;;26.39;42.13;101465.25;146612;613;46021;-74